Time;durP1;ratioP1;P1;durP2;ratioP2;P2;SDS_P1;SDS_P2;PMS_P1;PMS_P2;Temp;Humidity;BMP_temperature;BMP_pressure;BME280_temperature;BME280_humidity;BME280_pressure;Samples;Min_cycle;Max_cycle;Signal;HPM_P1;HPM_P2
2022/09/17 00:00:34;;;;;;;22.40;4.13;;;11.00;99.90;;;;;;5036430;28;20235;-80
2022/09/17 00:03:01;;;;;;;19.83;4.10;;;11.10;99.90;;;;;;5039171;28;20231;-80
2022/09/17 00:05:28;;;;;;;18.90;4.17;;;11.10;99.90;;;;;;5040406;28;20226;-80
2022/09/17 00:07:56;;;;;;;22.77;4.27;;;11.10;99.90;;;;;;5036531;28;20230;-79
2022/09/17 00:10:23;;;;;;;18.57;4.00;;;11.10;99.90;;;;;;5035915;28;20231;-79
2022/09/17 00:12:50;;;;;;;18.23;3.47;;;11.10;99.90;;;;;;5025413;28;20233;-78
2022/09/17 00:15:17;;;;;;;23.77;4.40;;;11.10;99.90;;;;;;5036656;28;20244;-79
2022/09/17 00:17:44;;;;;;;20.87;4.07;;;11.10;99.90;;;;;;5031387;28;20213;-78
2022/09/17 00:20:11;;;;;;;13.20;3.80;;;11.10;99.90;;;;;;5024411;28;20230;-79
2022/09/17 00:22:39;;;;;;;23.50;5.03;;;11.10;99.90;;;;;;5043738;28;20226;-78
2022/09/17 00:25:08;;;;;;;17.90;4.67;;;11.00;99.90;;;;;;5035635;28;20239;-79
2022/09/17 00:27:34;;;;;;;20.30;4.33;;;11.00;99.90;;;;;;5025947;28;20223;-78
2022/09/17 00:30:01;;;;;;;19.80;4.40;;;10.90;99.90;;;;;;5023507;28;20218;-78
2022/09/17 00:32:28;;;;;;;17.20;4.00;;;10.90;99.90;;;;;;5043248;28;20255;-78
2022/09/17 00:34:54;;;;;;;21.07;4.23;;;10.90;99.90;;;;;;5021105;28;20232;-78
2022/09/17 00:37:22;;;;;;;21.03;4.50;;;10.90;99.90;;;;;;5039236;28;20839;-78
2022/09/17 00:39:49;;;;;;;24.13;4.03;;;10.90;99.90;;;;;;5034205;28;20230;-78
2022/09/17 00:42:18;;;;;;;21.17;4.07;;;10.90;99.90;;;;;;5027282;28;20252;-78
2022/09/17 00:44:49;;;;;;;20.30;4.00;;;10.90;99.90;;;;;;5039289;28;20220;-79
2022/09/17 00:47:21;;;;;;;21.17;3.80;;;10.90;99.90;;;;;;5033090;28;20223;-79
2022/09/17 00:49:51;;;;;;;25.13;4.83;;;10.90;99.90;;;;;;5044124;28;20907;-79
2022/09/17 00:52:20;;;;;;;24.93;4.40;;;10.90;99.90;;;;;;5043729;28;20232;-79
2022/09/17 00:54:56;;;;;;;19.60;4.43;;;10.90;99.90;;;;;;5037163;28;20225;-79
2022/09/17 00:57:24;;;;;;;17.20;3.87;;;10.80;99.90;;;;;;5036266;28;20224;-78
2022/09/17 00:59:52;;;;;;;21.30;4.53;;;10.80;99.90;;;;;;5040866;28;21028;-79
2022/09/17 01:02:19;;;;;;;17.47;3.53;;;10.80;99.90;;;;;;5024348;28;20248;-79
2022/09/17 01:04:46;;;;;;;18.23;4.03;;;10.80;99.90;;;;;;5038000;28;20223;-79
2022/09/17 01:07:26;;;;;;;23.17;4.40;;;10.70;99.90;;;;;;5039572;28;20228;-78
2022/09/17 01:09:57;;;;;;;25.00;4.73;;;10.60;99.90;;;;;;5043564;28;20688;-79
2022/09/17 01:12:44;;;;;;;17.70;3.60;;;10.60;99.90;;;;;;5041669;28;20273;-79
2022/09/17 01:15:22;;;;;;;24.53;3.93;;;10.60;99.90;;;;;;5041637;28;20262;-79
2022/09/17 01:18:03;;;;;;;18.87;3.93;;;10.50;99.90;;;;;;5033591;28;20211;-78
2022/09/17 01:21:13;;;;;;;18.20;3.43;;;10.50;99.90;;;;;;5038019;28;20732;-78
2022/09/17 01:24:07;;;;;;;15.03;3.57;;;10.50;99.90;;;;;;5033712;28;20236;-78
2022/09/17 01:27:15;;;;;;;26.63;4.07;;;10.50;99.90;;;;;;5037059;28;20227;-79
2022/09/17 01:29:57;;;;;;;19.50;3.87;;;10.40;99.90;;;;;;5039845;28;20225;-79
2022/09/17 01:32:31;;;;;;;25.20;3.97;;;10.40;99.90;;;;;;5022624;28;20235;-79
2022/09/17 01:35:03;;;;;;;15.73;3.63;;;10.50;99.90;;;;;;5037566;28;20311;-78
2022/09/17 01:37:36;;;;;;;20.73;4.00;;;10.50;99.90;;;;;;5039280;28;20227;-78
2022/09/17 01:40:08;;;;;;;19.47;3.73;;;10.50;99.90;;;;;;5016544;28;20234;-79
2022/09/17 01:42:43;;;;;;;18.07;3.23;;;10.50;99.90;;;;;;5036512;28;20288;-79
2022/09/17 01:45:17;;;;;;;16.93;3.70;;;10.50;99.90;;;;;;5036656;28;20233;-79
2022/09/17 01:47:51;;;;;;;17.23;3.40;;;10.50;99.90;;;;;;5022357;28;20755;-79
2022/09/17 01:50:21;;;;;;;18.87;3.10;;;10.50;99.90;;;;;;5040513;28;20320;-79
2022/09/17 01:52:51;;;;;;;17.20;3.33;;;10.50;99.90;;;;;;5036161;28;20225;-79
2022/09/17 01:55:21;;;;;;;16.90;3.40;;;10.50;99.90;;;;;;5034183;28;20585;-78
2022/09/17 01:57:54;;;;;;;15.10;3.70;;;10.50;99.90;;;;;;5042364;28;20229;-78
2022/09/17 02:00:22;;;;;;;19.17;3.53;;;10.50;99.90;;;;;;5039785;28;20273;-78
2022/09/17 02:02:55;;;;;;;20.90;4.03;;;10.50;99.90;;;;;;5024063;28;20237;-79
2022/09/17 02:05:27;;;;;;;22.47;3.40;;;10.50;99.90;;;;;;5036702;28;20226;-78
2022/09/17 02:07:58;;;;;;;14.33;3.00;;;10.50;99.90;;;;;;5033299;28;20738;-78
2022/09/17 02:10:29;;;;;;;17.97;3.93;;;10.50;99.90;;;;;;5028506;28;20883;-78
2022/09/17 02:12:59;;;;;;;17.57;3.37;;;10.50;99.90;;;;;;5037588;28;20269;-78
2022/09/17 02:15:31;;;;;;;17.20;3.20;;;10.50;99.90;;;;;;5036119;28;20231;-78
2022/09/17 02:18:05;;;;;;;13.47;3.47;;;10.50;99.90;;;;;;5038663;28;20234;-78
2022/09/17 02:20:40;;;;;;;18.20;3.27;;;10.50;99.90;;;;;;5036584;28;20229;-79
2022/09/17 02:23:14;;;;;;;14.70;3.10;;;10.50;99.90;;;;;;5028062;28;20227;-78
2022/09/17 02:25:47;;;;;;;10.27;2.67;;;10.40;99.90;;;;;;5025648;28;20871;-79
2022/09/17 02:28:19;;;;;;;19.00;3.97;;;10.40;99.90;;;;;;5037545;28;20838;-78
2022/09/17 02:30:46;;;;;;;14.53;2.77;;;10.30;99.90;;;;;;5029523;28;20599;-77
2022/09/17 02:33:14;;;;;;;13.93;2.97;;;10.30;99.90;;;;;;5032903;28;20224;-78
2022/09/17 02:35:42;;;;;;;18.13;4.07;;;10.20;99.90;;;;;;5026037;28;20230;-79
2022/09/17 02:38:09;;;;;;;13.73;3.30;;;10.20;99.90;;;;;;5031207;28;20219;-78
2022/09/17 02:40:41;;;;;;;16.37;3.30;;;10.20;99.90;;;;;;5046942;28;20224;-78
2022/09/17 02:43:13;;;;;;;15.20;3.03;;;10.20;99.90;;;;;;5040010;28;20262;-78
2022/09/17 02:45:51;;;;;;;16.97;3.50;;;10.20;99.90;;;;;;5031814;28;20767;-78
2022/09/17 02:48:37;;;;;;;11.50;3.10;;;10.20;99.90;;;;;;5038487;28;20223;-78
2022/09/17 02:51:16;;;;;;;20.20;4.13;;;10.20;99.90;;;;;;5046425;28;20222;-78
2022/09/17 02:53:55;;;;;;;11.17;3.50;;;10.20;99.90;;;;;;5031369;28;20242;-78
2022/09/17 02:56:33;;;;;;;14.73;3.13;;;10.20;99.90;;;;;;5035879;28;20222;-78
2022/09/17 02:59:10;;;;;;;17.40;3.30;;;10.30;99.90;;;;;;5042370;28;20361;-78
2022/09/17 03:01:42;;;;;;;14.23;3.43;;;10.30;99.90;;;;;;5037852;28;20360;-78
2022/09/17 03:04:14;;;;;;;11.67;3.27;;;10.30;99.90;;;;;;5033772;28;20267;-78
2022/09/17 03:06:41;;;;;;;18.23;3.53;;;10.30;99.90;;;;;;5034580;28;20234;-78
2022/09/17 03:09:08;;;;;;;17.57;3.53;;;10.30;99.90;;;;;;5027036;28;20756;-78
2022/09/17 03:11:34;;;;;;;18.23;3.70;;;10.30;99.90;;;;;;5035592;28;20224;-78
2022/09/17 03:14:01;;;;;;;19.23;3.10;;;10.30;99.90;;;;;;5022746;28;20232;-78
2022/09/17 03:16:28;;;;;;;15.17;3.37;;;10.20;99.90;;;;;;5021433;28;20229;-78
2022/09/17 03:18:54;;;;;;;26.03;4.27;;;10.20;99.90;;;;;;5038210;28;20313;-78
2022/09/17 03:21:23;;;;;;;14.07;3.30;;;10.20;99.90;;;;;;5039411;28;20238;-77
2022/09/17 03:23:50;;;;;;;13.33;2.77;;;10.20;99.90;;;;;;5028576;28;20223;-77
2022/09/17 03:26:16;;;;;;;20.30;3.50;;;10.30;99.90;;;;;;5037268;28;20219;-77
2022/09/17 03:28:43;;;;;;;17.13;3.40;;;10.30;99.90;;;;;;5039992;28;20222;-78
2022/09/17 03:31:09;;;;;;;14.27;3.13;;;10.20;99.90;;;;;;5036905;28;20237;-78
2022/09/17 03:33:36;;;;;;;15.83;2.63;;;10.30;99.90;;;;;;5035466;28;20236;-78
2022/09/17 03:36:03;;;;;;;15.13;2.83;;;10.30;99.90;;;;;;5022666;28;20231;-78
2022/09/17 03:38:32;;;;;;;16.43;2.87;;;10.30;99.90;;;;;;5017522;28;20264;-77
2022/09/17 03:41:00;;;;;;;16.30;3.20;;;10.30;99.90;;;;;;5034308;28;20226;-77
2022/09/17 03:43:27;;;;;;;13.07;3.10;;;10.30;99.90;;;;;;5035940;28;20219;-77
2022/09/17 03:45:54;;;;;;;15.73;3.63;;;10.40;99.90;;;;;;5033492;28;20696;-78
2022/09/17 03:48:20;;;;;;;13.23;2.70;;;10.40;99.90;;;;;;5036113;28;20646;-77
2022/09/17 03:50:47;;;;;;;16.57;3.40;;;10.40;99.90;;;;;;5041846;28;20227;-77
2022/09/17 03:53:14;;;;;;;14.07;3.50;;;10.40;99.90;;;;;;5009588;28;20593;-76
2022/09/17 03:55:43;;;;;;;13.33;2.70;;;10.40;99.90;;;;;;5034732;28;20320;-77
2022/09/17 03:58:09;;;;;;;14.53;2.80;;;10.40;99.90;;;;;;5026135;28;20242;-76
2022/09/17 04:00:36;;;;;;;16.13;2.77;;;10.40;99.90;;;;;;5039284;28;21006;-78
2022/09/17 04:03:03;;;;;;;13.07;3.10;;;10.40;99.90;;;;;;5011008;28;20695;-77
2022/09/17 04:05:30;;;;;;;12.93;2.60;;;10.40;99.90;;;;;;5040382;28;20221;-78
2022/09/17 04:07:57;;;;;;;13.43;2.73;;;10.40;99.90;;;;;;5039869;28;20884;-78
2022/09/17 04:10:24;;;;;;;13.20;2.70;;;10.40;99.90;;;;;;5040681;28;20222;-76
2022/09/17 04:12:52;;;;;;;12.50;2.90;;;10.40;99.90;;;;;;5041017;28;20235;-76
2022/09/17 04:15:18;;;;;;;16.40;2.60;;;10.40;99.90;;;;;;5024770;28;20234;-77
2022/09/17 04:17:45;;;;;;;18.97;3.40;;;10.40;99.90;;;;;;5045044;28;20237;-77
2022/09/17 04:20:12;;;;;;;15.40;2.93;;;10.40;99.90;;;;;;5037864;28;20219;-77
2022/09/17 04:22:38;;;;;;;9.83;2.43;;;10.30;99.90;;;;;;5037928;28;20411;-78
2022/09/17 04:25:06;;;;;;;11.60;2.50;;;10.30;99.90;;;;;;5041409;28;20227;-77
2022/09/17 04:27:32;;;;;;;12.23;2.50;;;10.30;99.90;;;;;;5043159;28;20232;-78
2022/09/17 04:30:01;;;;;;;13.37;3.17;;;10.30;99.90;;;;;;5040408;28;20285;-79
2022/09/17 04:32:28;;;;;;;10.30;2.83;;;10.30;99.90;;;;;;5039294;28;20222;-78
2022/09/17 04:34:54;;;;;;;12.13;2.80;;;10.30;99.90;;;;;;5035513;28;20838;-78
2022/09/17 04:37:21;;;;;;;11.50;3.03;;;10.30;99.90;;;;;;5032169;28;20273;-78
2022/09/17 04:39:48;;;;;;;11.40;2.37;;;10.30;99.90;;;;;;5035843;28;20927;-78
2022/09/17 04:42:15;;;;;;;13.50;2.13;;;10.30;99.90;;;;;;5047173;28;20234;-78
2022/09/17 04:44:42;;;;;;;11.50;2.70;;;10.20;99.90;;;;;;5023124;28;20235;-78
2022/09/17 04:47:10;;;;;;;11.27;2.90;;;10.20;99.90;;;;;;5043738;28;20215;-77
2022/09/17 04:49:37;;;;;;;11.50;2.27;;;10.20;99.90;;;;;;5037153;28;20591;-79
2022/09/17 04:52:03;;;;;;;14.67;2.73;;;10.20;99.90;;;;;;5037469;28;20233;-78
2022/09/17 04:54:30;;;;;;;11.40;2.77;;;10.20;99.90;;;;;;5024302;28;20876;-78
2022/09/17 04:56:57;;;;;;;12.13;2.53;;;10.20;99.90;;;;;;5038909;28;20220;-79
2022/09/17 04:59:24;;;;;;;9.47;2.33;;;10.20;99.90;;;;;;5045235;28;20357;-80
2022/09/17 05:01:50;;;;;;;17.10;3.63;;;10.20;99.90;;;;;;5043990;28;20228;-79
2022/09/17 05:04:18;;;;;;;18.77;3.33;;;10.20;99.90;;;;;;5019231;28;20216;-78
2022/09/17 05:06:45;;;;;;;11.03;2.57;;;10.20;99.90;;;;;;5035969;28;20258;-79
2022/09/17 05:09:12;;;;;;;12.00;2.60;;;10.10;99.90;;;;;;5035420;28;20741;-78
2022/09/17 05:11:38;;;;;;;10.37;2.80;;;10.10;99.90;;;;;;5037702;28;20227;-78
2022/09/17 05:14:05;;;;;;;13.87;2.67;;;10.10;99.90;;;;;;5035938;28;20218;-79
2022/09/17 05:16:32;;;;;;;14.70;3.23;;;10.10;99.90;;;;;;5024844;28;20232;-78
2022/09/17 05:18:59;;;;;;;11.53;3.10;;;10.10;99.90;;;;;;5024981;28;20237;-78
2022/09/17 05:21:27;;;;;;;12.03;2.73;;;10.10;99.90;;;;;;5039145;28;20234;-79
2022/09/17 05:23:53;;;;;;;10.00;2.23;;;10.10;99.90;;;;;;5022741;28;20284;-78
2022/09/17 05:26:21;;;;;;;14.60;3.00;;;10.10;99.90;;;;;;5042010;28;20553;-79
2022/09/17 05:28:47;;;;;;;17.60;3.43;;;10.10;99.90;;;;;;5042672;28;20631;-78
2022/09/17 05:31:14;;;;;;;11.83;3.10;;;10.10;99.90;;;;;;5020736;28;20257;-78
2022/09/17 05:33:41;;;;;;;9.90;2.33;;;10.10;99.90;;;;;;5022698;28;20228;-78
2022/09/17 05:36:08;;;;;;;11.70;2.47;;;10.10;99.90;;;;;;5041002;28;20588;-79
2022/09/17 05:38:36;;;;;;;11.17;2.47;;;10.10;99.90;;;;;;5045052;28;20230;-80
2022/09/17 05:41:05;;;;;;;8.93;2.43;;;10.10;99.90;;;;;;5026325;28;20224;-79
2022/09/17 05:43:31;;;;;;;13.10;2.70;;;10.10;99.90;;;;;;5037263;28;20236;-78
2022/09/17 05:46:01;;;;;;;14.33;3.23;;;10.20;99.90;;;;;;5021265;28;20226;-80
2022/09/17 05:48:28;;;;;;;14.30;3.30;;;10.20;99.90;;;;;;5027926;28;20762;-80
2022/09/17 05:50:55;;;;;;;12.27;3.00;;;10.20;99.90;;;;;;5038849;28;20339;-80
2022/09/17 05:53:22;;;;;;;14.73;3.13;;;10.20;99.90;;;;;;5021368;28;20231;-79
2022/09/17 05:55:50;;;;;;;12.87;3.00;;;10.30;99.90;;;;;;5046641;28;20230;-80
2022/09/17 05:58:19;;;;;;;14.63;2.63;;;10.30;99.90;;;;;;5047151;28;20231;-84
2022/09/17 06:00:47;;;;;;;13.53;3.03;;;10.30;99.90;;;;;;5048551;28;20233;-86
2022/09/17 06:03:17;;;;;;;16.47;3.37;;;10.40;99.90;;;;;;5032296;28;20231;-86
2022/09/17 06:05:44;;;;;;;10.40;2.40;;;10.40;99.90;;;;;;5051287;28;20232;-84
2022/09/17 06:08:11;;;;;;;11.73;2.27;;;10.50;99.90;;;;;;5051219;28;20227;-84
2022/09/17 06:10:38;;;;;;;18.23;2.83;;;10.50;99.90;;;;;;5034313;28;20230;-83
2022/09/17 06:13:06;;;;;;;14.97;2.67;;;10.50;99.90;;;;;;5033523;28;20229;-84
2022/09/17 06:15:33;;;;;;;13.13;2.90;;;10.60;99.90;;;;;;5017509;28;20238;-83
2022/09/17 06:18:00;;;;;;;8.70;2.33;;;10.60;99.90;;;;;;5031600;28;20318;-84
2022/09/17 06:20:26;;;;;;;8.23;3.00;;;10.70;99.90;;;;;;5031024;28;20233;-84
2022/09/17 06:22:57;;;;;;;12.53;2.57;;;10.70;99.90;;;;;;5027375;28;20372;-83
2022/09/17 06:25:23;;;;;;;9.93;2.63;;;10.80;99.90;;;;;;5043791;28;20225;-83
2022/09/17 06:27:50;;;;;;;15.30;2.47;;;10.80;99.90;;;;;;5054916;28;20704;-84
2022/09/17 06:30:18;;;;;;;8.47;2.17;;;10.80;99.90;;;;;;5042140;28;20225;-83
2022/09/17 06:32:45;;;;;;;9.47;2.20;;;10.90;99.90;;;;;;5042991;28;20252;-83
2022/09/17 06:35:12;;;;;;;12.00;2.87;;;10.90;99.90;;;;;;5031562;28;20779;-82
2022/09/17 06:37:39;;;;;;;16.93;3.37;;;10.90;99.90;;;;;;5034131;28;20232;-82
2022/09/17 06:40:07;;;;;;;14.10;2.93;;;10.90;99.90;;;;;;5023520;28;20242;-81
2022/09/17 06:42:34;;;;;;;12.23;2.60;;;10.90;99.90;;;;;;5025515;28;20238;-84
2022/09/17 06:45:01;;;;;;;9.77;2.10;;;10.90;99.90;;;;;;5028065;28;20220;-82
2022/09/17 06:47:28;;;;;;;15.90;2.70;;;10.90;99.90;;;;;;5025154;28;20230;-85
2022/09/17 06:49:55;;;;;;;11.87;2.60;;;10.90;99.90;;;;;;5028017;28;20227;-82
2022/09/17 06:52:22;;;;;;;14.20;2.27;;;10.80;99.90;;;;;;5044793;28;21594;-82
2022/09/17 06:54:49;;;;;;;8.57;2.13;;;10.90;99.90;;;;;;5024780;28;20249;-82
2022/09/17 06:57:16;;;;;;;11.87;2.60;;;10.90;99.90;;;;;;5043353;28;20223;-83
2022/09/17 06:59:42;;;;;;;12.57;2.50;;;10.90;99.90;;;;;;5024500;28;20223;-81
2022/09/17 07:02:09;;;;;;;11.47;2.30;;;10.90;99.90;;;;;;5032086;28;20230;-82
2022/09/17 07:04:37;;;;;;;10.43;2.40;;;10.90;99.90;;;;;;5036802;28;20294;-81
2022/09/17 07:07:05;;;;;;;7.33;2.00;;;10.90;99.90;;;;;;5022497;28;20223;-82
2022/09/17 07:09:31;;;;;;;10.77;2.20;;;10.90;99.90;;;;;;5037417;28;20231;-82
2022/09/17 07:11:58;;;;;;;6.60;1.97;;;10.90;99.90;;;;;;5034775;28;20705;-82
2022/09/17 07:14:25;;;;;;;9.77;1.97;;;10.80;99.90;;;;;;5022749;28;20245;-82
2022/09/17 07:16:53;;;;;;;8.40;1.70;;;10.80;99.90;;;;;;5031724;28;20233;-82
2022/09/17 07:19:20;;;;;;;6.67;1.90;;;10.80;99.90;;;;;;5027700;28;20272;-82
2022/09/17 07:21:49;;;;;;;11.47;1.73;;;10.80;99.90;;;;;;5018770;28;20231;-82
2022/09/17 07:24:16;;;;;;;8.07;1.53;;;10.80;99.90;;;;;;5031000;28;20241;-82
2022/09/17 07:26:42;;;;;;;8.20;1.50;;;10.80;99.90;;;;;;5036094;28;20255;-82
2022/09/17 07:29:09;;;;;;;7.03;1.63;;;10.80;99.90;;;;;;5025745;28;20227;-85
2022/09/17 07:31:36;;;;;;;5.63;1.50;;;10.90;99.90;;;;;;5024228;28;20238;-82
2022/09/17 07:34:03;;;;;;;6.77;1.70;;;10.90;99.90;;;;;;5039114;28;20412;-83
2022/09/17 07:36:29;;;;;;;7.90;1.90;;;10.90;99.90;;;;;;5040426;28;20234;-83
2022/09/17 07:38:57;;;;;;;6.30;1.40;;;10.90;99.90;;;;;;5039195;28;20662;-82
2022/09/17 07:41:24;;;;;;;9.83;1.70;;;11.00;99.90;;;;;;5023463;28;20755;-82
2022/09/17 07:43:53;;;;;;;5.27;1.60;;;11.00;99.90;;;;;;5036516;28;20223;-82
2022/09/17 07:46:21;;;;;;;4.83;1.20;;;11.10;99.90;;;;;;5038920;28;20743;-82
2022/09/17 07:48:48;;;;;;;4.57;1.73;;;11.10;99.90;;;;;;5038915;28;20235;-83
2022/09/17 07:51:16;;;;;;;6.77;1.20;;;11.20;99.90;;;;;;5035718;28;20595;-82
2022/09/17 07:53:43;;;;;;;5.17;1.40;;;11.30;99.90;;;;;;5038760;28;20600;-82
2022/09/17 07:56:11;;;;;;;5.03;1.10;;;11.40;99.90;;;;;;5027807;28;20235;-82
2022/09/17 07:58:38;;;;;;;7.83;1.10;;;11.50;99.90;;;;;;5021749;28;20239;-83
2022/09/17 08:01:07;;;;;;;4.30;1.17;;;11.60;99.90;;;;;;5030871;28;20235;-83
2022/09/17 08:03:33;;;;;;;4.83;1.07;;;11.70;99.90;;;;;;5035632;28;20234;-82
2022/09/17 08:06:04;;;;;;;4.57;1.70;;;11.80;99.90;;;;;;5031926;28;20228;-83
2022/09/17 08:08:32;;;;;;;7.37;1.70;;;11.90;99.90;;;;;;5033575;28;20236;-83
2022/09/17 08:11:02;;;;;;;6.07;1.60;;;12.00;99.90;;;;;;5025643;28;20382;-83
2022/09/17 08:13:31;;;;;;;5.50;1.50;;;12.10;99.90;;;;;;5019064;28;20234;-83
2022/09/17 08:16:01;;;;;;;4.60;1.27;;;12.30;99.90;;;;;;5038579;28;20237;-83
2022/09/17 08:18:28;;;;;;;4.93;1.20;;;12.50;99.90;;;;;;5031166;28;20236;-83
2022/09/17 08:20:57;;;;;;;6.00;1.30;;;12.90;99.90;;;;;;5034300;28;20251;-83
2022/09/17 08:23:24;;;;;;;8.13;1.53;;;13.40;99.90;;;;;;5018340;28;20228;-82
2022/09/17 08:25:54;;;;;;;7.47;1.57;;;14.00;99.90;;;;;;5021948;28;20452;-83
2022/09/17 08:28:21;;;;;;;5.47;1.40;;;14.60;99.90;;;;;;5040454;28;20708;-83
2022/09/17 08:30:49;;;;;;;6.77;1.57;;;15.20;99.90;;;;;;5020170;28;20316;-82
2022/09/17 08:33:16;;;;;;;9.37;3.03;;;15.80;99.90;;;;;;5021071;28;20816;-82
2022/09/17 08:35:43;;;;;;;6.40;1.73;;;16.30;99.90;;;;;;5028502;28;20279;-83
2022/09/17 08:38:10;;;;;;;6.23;1.50;;;16.70;99.90;;;;;;5032258;28;20225;-82
2022/09/17 08:40:42;;;;;;;6.27;1.53;;;17.00;99.90;;;;;;5029673;28;20235;-82
2022/09/17 08:43:16;;;;;;;3.83;1.43;;;17.40;99.90;;;;;;5024235;28;20652;-82
2022/09/17 08:45:42;;;;;;;6.73;1.40;;;17.80;99.90;;;;;;5041832;28;20230;-82
2022/09/17 08:48:14;;;;;;;6.80;1.60;;;18.10;99.90;;;;;;5040822;28;20227;-82
2022/09/17 08:50:41;;;;;;;5.17;1.40;;;18.50;99.90;;;;;;5047009;28;20765;-81
2022/09/17 08:53:26;;;;;;;6.67;1.33;;;18.70;99.90;;;;;;5038370;28;20228;-81
2022/09/17 08:56:00;;;;;;;4.53;1.50;;;18.90;99.90;;;;;;5024529;28;20239;-81
2022/09/17 08:58:53;;;;;;;9.03;1.60;;;19.10;99.90;;;;;;5050312;28;20211;-81
2022/09/17 09:01:34;;;;;;;7.33;1.77;;;19.20;98.50;;;;;;5046889;28;20227;-81
2022/09/17 09:04:18;;;;;;;5.23;1.13;;;19.30;98.30;;;;;;5052114;28;20583;-84
2022/09/17 09:06:49;;;;;;;7.63;1.83;;;19.30;97.90;;;;;;5049401;28;20676;-86
2022/09/17 09:09:18;;;;;;;7.50;1.30;;;19.10;98.50;;;;;;5046321;28;20230;-84
2022/09/17 09:11:47;;;;;;;6.07;1.57;;;18.80;98.80;;;;;;5041441;28;20234;-88
2022/09/17 09:14:19;;;;;;;4.00;1.00;;;18.40;98.70;;;;;;5024290;28;20925;-85
2022/09/17 09:16:47;;;;;;;5.33;1.50;;;18.00;99.30;;;;;;5022530;28;20238;-85
2022/09/17 09:19:22;;;;;;;6.30;1.50;;;17.70;98.70;;;;;;5037101;28;20221;-87
2022/09/17 09:22:02;;;;;;;5.80;1.17;;;17.30;98.00;;;;;;5022637;28;20232;-85
2022/09/17 09:24:39;;;;;;;6.83;1.20;;;17.00;98.70;;;;;;5033094;28;20274;-86
2022/09/17 09:27:16;;;;;;;5.53;1.10;;;16.70;99.10;;;;;;5043836;28;20256;-86
2022/09/17 09:29:55;;;;;;;5.27;1.10;;;16.60;99.30;;;;;;5030182;28;20302;-86
2022/09/17 09:32:36;;;;;;;3.53;0.90;;;16.50;98.80;;;;;;5034780;28;20685;-85
2022/09/17 09:35:17;;;;;;;2.03;0.70;;;16.30;98.00;;;;;;5026214;28;20229;-85
2022/09/17 09:37:50;;;;;;;1.97;0.53;;;16.10;97.20;;;;;;5012011;28;20780;-82
2022/09/17 09:40:30;;;;;;;2.37;0.67;;;16.00;97.70;;;;;;5006398;28;20235;-83
2022/09/17 09:43:01;;;;;;;3.83;1.03;;;15.80;98.20;;;;;;5034561;28;20319;-83
2022/09/17 09:45:41;;;;;;;1.57;0.70;;;15.70;98.50;;;;;;5049933;28;20537;-84
2022/09/17 09:48:15;;;;;;;5.67;0.73;;;15.80;99.70;;;;;;5033040;28;20227;-83
2022/09/17 09:50:49;;;;;;;1.90;0.57;;;16.10;99.30;;;;;;5052247;28;20243;-83
2022/09/17 09:53:25;;;;;;;2.57;0.80;;;16.40;98.30;;;;;;5053097;28;20226;-83
2022/09/17 09:56:04;;;;;;;3.23;0.60;;;16.70;97.70;;;;;;5048337;28;20264;-83
2022/09/17 09:58:34;;;;;;;1.27;0.50;;;17.00;97.00;;;;;;5022456;28;20226;-83
2022/09/17 10:01:02;;;;;;;2.33;0.90;;;17.20;96.30;;;;;;5022541;28;20228;-82
2022/09/17 10:03:31;;;;;;;1.50;0.70;;;17.20;96.30;;;;;;5026681;28;20222;-82
2022/09/17 10:06:01;;;;;;;2.83;1.00;;;17.10;96.80;;;;;;5040687;28;20226;-83
2022/09/17 10:08:30;;;;;;;2.93;0.60;;;17.00;95.80;;;;;;5026300;28;20821;-83
2022/09/17 10:10:59;;;;;;;1.23;0.47;;;16.90;96.50;;;;;;5024503;28;20250;-83
2022/09/17 10:13:28;;;;;;;1.80;0.53;;;16.80;96.40;;;;;;5038196;28;20238;-83
2022/09/17 10:15:54;;;;;;;1.50;0.40;;;16.70;96.10;;;;;;5042274;28;20231;-82
2022/09/17 10:18:23;;;;;;;1.63;0.57;;;16.50;95.60;;;;;;5045918;28;20222;-82
2022/09/17 10:20:59;;;;;;;2.27;0.77;;;16.40;96.00;;;;;;5026689;28;20225;-83
2022/09/17 10:23:29;;;;;;;1.13;0.47;;;16.30;96.20;;;;;;5025791;28;20792;-82
2022/09/17 10:25:56;;;;;;;2.67;0.97;;;16.20;97.20;;;;;;5027232;28;21052;-82
2022/09/17 10:28:33;;;;;;;3.17;1.00;;;16.30;97.40;;;;;;5032529;28;20225;-83
2022/09/17 10:31:02;;;;;;;3.57;1.00;;;16.40;96.60;;;;;;5026397;28;20231;-82
2022/09/17 10:33:30;;;;;;;3.23;0.90;;;16.50;96.60;;;;;;4999883;28;20869;-83
2022/09/17 10:36:01;;;;;;;4.07;1.10;;;16.50;96.70;;;;;;5014010;28;20251;-82
2022/09/17 10:38:30;;;;;;;3.50;1.10;;;16.50;96.80;;;;;;5005781;28;20217;-82
2022/09/17 10:41:13;;;;;;;4.17;0.90;;;16.40;96.50;;;;;;5005156;28;20217;-81
2022/09/17 10:43:40;;;;;;;5.07;1.27;;;16.30;96.40;;;;;;5021752;28;20226;-82
2022/09/17 10:46:10;;;;;;;2.47;0.80;;;16.30;97.10;;;;;;5038854;28;20219;-81
2022/09/17 10:48:43;;;;;;;2.03;0.80;;;16.20;96.80;;;;;;5020587;28;20660;-81
2022/09/17 10:51:19;;;;;;;4.10;0.90;;;16.10;96.70;;;;;;5042781;28;20264;-82
2022/09/17 10:54:05;;;;;;;3.40;0.80;;;16.00;97.00;;;;;;5018960;28;20244;-81
2022/09/17 10:56:36;;;;;;;3.97;0.90;;;15.90;97.00;;;;;;5035457;28;20316;-82
2022/09/17 10:59:26;;;;;;;2.80;1.00;;;15.70;97.10;;;;;;5038840;28;20238;-82
2022/09/17 11:02:13;;;;;;;3.00;0.73;;;15.60;97.40;;;;;;5032290;28;20243;-81
2022/09/17 11:04:49;;;;;;;4.80;1.00;;;15.40;97.10;;;;;;5042477;28;20244;-82
2022/09/17 11:07:41;;;;;;;3.87;0.80;;;15.20;97.60;;;;;;5039768;28;20240;-82
2022/09/17 11:10:16;;;;;;;4.37;0.90;;;15.10;98.00;;;;;;5026746;28;20229;-82
2022/09/17 11:13:04;;;;;;;3.37;0.87;;;15.00;98.10;;;;;;5044596;28;20729;-81
2022/09/17 11:15:43;;;;;;;2.60;0.70;;;14.90;98.40;;;;;;5020148;28;20241;-81
2022/09/17 11:18:32;;;;;;;4.80;1.10;;;14.90;98.80;;;;;;5029604;28;20229;-81
2022/09/17 11:21:23;;;;;;;2.03;0.83;;;15.00;99.10;;;;;;5026390;28;20225;-81
2022/09/17 11:24:08;;;;;;;5.13;1.10;;;15.00;99.00;;;;;;5022542;28;20219;-80
2022/09/17 11:26:39;;;;;;;3.40;0.93;;;15.10;99.00;;;;;;5023385;28;20322;-81
2022/09/17 11:29:27;;;;;;;4.70;1.00;;;15.10;98.80;;;;;;5030812;28;21152;-81
2022/09/17 11:32:00;;;;;;;5.00;0.83;;;15.10;99.10;;;;;;5018552;28;20353;-80
2022/09/17 11:34:33;;;;;;;2.83;1.10;;;15.20;98.90;;;;;;5021188;28;20323;-83
2022/09/17 11:37:08;;;;;;;3.40;1.10;;;15.20;99.20;;;;;;5029501;28;20226;-82
2022/09/17 11:39:44;;;;;;;2.37;0.80;;;15.20;99.10;;;;;;5021669;28;20248;-82
2022/09/17 11:42:16;;;;;;;3.83;1.17;;;15.30;98.80;;;;;;5024753;28;20233;-83
2022/09/17 11:44:47;;;;;;;3.47;1.00;;;15.50;99.00;;;;;;5020025;28;20241;-81
2022/09/17 11:47:18;;;;;;;5.70;1.20;;;15.60;98.70;;;;;;5013766;28;20263;-82
2022/09/17 11:49:50;;;;;;;2.87;0.90;;;15.80;98.80;;;;;;5026988;28;20226;-82
2022/09/17 11:52:21;;;;;;;2.47;1.07;;;16.10;98.70;;;;;;5029046;28;20246;-83
2022/09/17 11:54:55;;;;;;;3.97;1.00;;;16.40;98.20;;;;;;5029634;28;20629;-83
2022/09/17 11:57:25;;;;;;;2.90;0.97;;;16.60;97.60;;;;;;5026563;28;20227;-83
2022/09/17 11:59:57;;;;;;;3.63;1.17;;;17.00;97.80;;;;;;5033029;28;20231;-83
2022/09/17 12:02:33;;;;;;;2.60;1.13;;;17.30;97.60;;;;;;5026953;28;21164;-84
2022/09/17 12:05:05;;;;;;;2.67;1.10;;;17.50;96.70;;;;;;5031917;28;20233;-83
2022/09/17 12:07:41;;;;;;;4.33;1.00;;;17.60;96.50;;;;;;5028517;28;20234;-85
2022/09/17 12:10:33;;;;;;;3.13;1.00;;;17.70;95.90;;;;;;5045137;28;20265;-84
2022/09/17 12:13:10;;;;;;;3.50;1.13;;;17.80;95.70;;;;;;5034452;28;20246;-85
2022/09/17 12:15:42;;;;;;;3.60;1.20;;;17.90;95.50;;;;;;5033780;28;20254;-84
2022/09/17 12:18:20;;;;;;;2.23;0.93;;;18.00;95.50;;;;;;5026755;28;20224;-85
2022/09/17 12:20:50;;;;;;;3.93;1.00;;;17.90;95.40;;;;;;5035340;28;20245;-86
2022/09/17 12:23:26;;;;;;;3.67;1.10;;;17.90;95.70;;;;;;5029713;28;20225;-84
2022/09/17 12:26:05;;;;;;;5.07;1.33;;;17.90;95.70;;;;;;5031442;28;20219;-83
2022/09/17 12:28:38;;;;;;;4.37;1.30;;;17.80;95.40;;;;;;5033885;28;20892;-83
2022/09/17 12:31:12;;;;;;;4.27;1.20;;;17.80;95.60;;;;;;5031344;28;20231;-83
2022/09/17 12:33:45;;;;;;;4.80;1.30;;;17.70;95.80;;;;;;5032630;28;20915;-83
2022/09/17 12:36:26;;;;;;;3.27;1.30;;;17.70;96.10;;;;;;5029198;28;20242;-83
2022/09/17 12:39:05;;;;;;;3.57;1.20;;;17.70;95.80;;;;;;5050542;28;20227;-82
2022/09/17 12:41:45;;;;;;;6.20;1.33;;;17.90;95.80;;;;;;5029766;28;20270;-83
2022/09/17 12:44:35;;;;;;;3.33;1.20;;;17.90;95.70;;;;;;5048676;28;20224;-82
2022/09/17 12:47:18;;;;;;;3.53;1.07;;;18.00;95.50;;;;;;5046123;28;20215;-83
2022/09/17 12:49:59;;;;;;;4.83;1.20;;;18.20;95.40;;;;;;5007460;28;20311;-83
2022/09/17 12:52:37;;;;;;;4.23;1.23;;;18.20;95.10;;;;;;5010496;28;20228;-82
2022/09/17 12:55:44;;;;;;;4.20;1.23;;;18.30;94.60;;;;;;5027674;28;20221;-83
2022/09/17 12:58:25;;;;;;;2.60;1.20;;;18.40;93.90;;;;;;5049143;28;20359;-83
2022/09/17 13:00:59;;;;;;;6.10;1.60;;;18.50;94.30;;;;;;5031336;28;20885;-82